Time;durP1;ratioP1;P1;durP2;ratioP2;P2;SDS_P1;SDS_P2;PMS_P1;PMS_P2;Temp;Humidity;BMP_temperature;BMP_pressure;BME280_temperature;BME280_humidity;BME280_pressure;Samples;Min_cycle;Max_cycle;Signal;HPM_P1;HPM_P2
2022/05/20 00:01:34;;;;;;;9.88;3.15;;;18.30;99.90;;;;;;4976354;28;20052;-82
2022/05/20 00:03:59;;;;;;;5.82;3.03;;;18.30;99.90;;;;;;4993768;28;20052;-82
2022/05/20 00:06:25;;;;;;;6.32;2.97;;;18.30;99.90;;;;;;4993674;28;20023;-82
2022/05/20 00:08:50;;;;;;;5.70;3.03;;;18.30;99.90;;;;;;4978297;28;20027;-82
2022/05/20 00:11:16;;;;;;;6.45;3.30;;;18.20;99.90;;;;;;4974115;28;20484;-82
2022/05/20 00:13:43;;;;;;;5.75;3.15;;;18.20;99.90;;;;;;4974736;28;20388;-82
2022/05/20 00:16:08;;;;;;;6.25;3.47;;;18.20;99.90;;;;;;4956801;28;20114;-83
2022/05/20 00:18:34;;;;;;;6.88;3.22;;;18.10;99.90;;;;;;4974570;28;20448;-83
2022/05/20 00:21:00;;;;;;;6.75;3.10;;;18.10;99.90;;;;;;4974232;28;20031;-82
2022/05/20 00:23:26;;;;;;;6.95;2.95;;;18.10;99.90;;;;;;4974103;28;20031;-82
2022/05/20 00:25:53;;;;;;;8.05;3.15;;;18.10;99.90;;;;;;4961762;28;20719;-82
2022/05/20 00:28:24;;;;;;;6.45;3.50;;;18.00;99.90;;;;;;4981635;28;20019;-82
2022/05/20 00:30:53;;;;;;;7.10;3.20;;;18.00;99.90;;;;;;4973792;28;20388;-82
2022/05/20 00:33:19;;;;;;;6.43;3.13;;;18.00;99.90;;;;;;4978844;28;20019;-82
2022/05/20 00:35:45;;;;;;;4.78;2.95;;;18.00;99.90;;;;;;4993313;28;20054;-83
2022/05/20 00:38:11;;;;;;;7.28;3.72;;;17.90;99.90;;;;;;4993581;28;20033;-82
2022/05/20 00:40:38;;;;;;;4.75;2.92;;;17.90;99.90;;;;;;4975986;28;20526;-82
2022/05/20 00:43:13;;;;;;;7.80;3.03;;;17.90;99.90;;;;;;4993303;28;20447;-83
2022/05/20 00:45:40;;;;;;;8.93;3.88;;;17.90;99.90;;;;;;4993668;28;20475;-83
2022/05/20 00:48:06;;;;;;;10.23;3.50;;;17.80;99.90;;;;;;4967268;28;20438;-83
2022/05/20 00:50:33;;;;;;;5.90;3.22;;;17.80;99.90;;;;;;4956427;28;20019;-83
2022/05/20 00:52:59;;;;;;;8.18;3.63;;;17.80;99.90;;;;;;4973640;28;20031;-82
2022/05/20 00:55:26;;;;;;;4.80;2.47;;;17.80;99.90;;;;;;4984718;28;20034;-82
2022/05/20 00:58:07;;;;;;;6.55;3.67;;;17.80;99.90;;;;;;4993000;28;20494;-83
2022/05/20 01:00:39;;;;;;;5.70;3.33;;;17.80;99.90;;;;;;4975766;28;20038;-82
2022/05/20 01:03:07;;;;;;;6.80;3.20;;;17.80;99.90;;;;;;4971005;28;20038;-82
2022/05/20 01:05:39;;;;;;;9.57;3.30;;;17.80;99.90;;;;;;4975108;28;20033;-82
2022/05/20 01:08:07;;;;;;;7.97;2.83;;;17.80;99.90;;;;;;4962396;28;20051;-82
2022/05/20 01:10:33;;;;;;;5.15;3.08;;;17.80;99.90;;;;;;4980133;28;20026;-83
2022/05/20 01:12:59;;;;;;;7.45;2.92;;;17.70;99.90;;;;;;4980075;28;20027;-83
2022/05/20 01:15:25;;;;;;;4.50;3.50;;;17.70;99.90;;;;;;4978399;28;20482;-83
2022/05/20 01:17:53;;;;;;;8.07;3.25;;;17.70;99.90;;;;;;4999156;28;20029;-82
2022/05/20 01:20:23;;;;;;;7.18;3.17;;;17.70;99.90;;;;;;4998926;28;20038;-82
2022/05/20 01:22:54;;;;;;;4.70;3.25;;;17.70;99.90;;;;;;4998269;28;20105;-82
2022/05/20 01:25:23;;;;;;;6.43;3.15;;;17.70;99.90;;;;;;4998870;28;20022;-82
2022/05/20 01:27:48;;;;;;;5.07;3.42;;;17.60;99.90;;;;;;4991132;28;20034;-82
2022/05/20 01:30:20;;;;;;;6.80;3.20;;;17.60;99.90;;;;;;4962798;28;20325;-83
2022/05/20 01:32:46;;;;;;;6.07;3.15;;;17.60;99.90;;;;;;4985624;28;20033;-83
2022/05/20 01:35:17;;;;;;;10.40;3.40;;;17.50;99.90;;;;;;4981698;28;20042;-83
2022/05/20 01:37:42;;;;;;;8.82;3.42;;;17.60;99.90;;;;;;4988016;28;20035;-83
2022/05/20 01:40:08;;;;;;;5.35;3.40;;;17.50;99.90;;;;;;4988476;28;20034;-83
2022/05/20 01:42:40;;;;;;;5.45;3.35;;;17.50;99.90;;;;;;4981923;28;20038;-83
2022/05/20 01:45:15;;;;;;;6.53;3.38;;;17.50;99.90;;;;;;4999046;28;20054;-83
2022/05/20 01:48:02;;;;;;;8.40;3.60;;;17.40;99.90;;;;;;4998990;28;20352;-82
2022/05/20 01:50:35;;;;;;;8.32;3.42;;;17.40;99.90;;;;;;4999059;28;20025;-83
2022/05/20 01:53:23;;;;;;;6.03;3.05;;;17.40;99.90;;;;;;4998429;28;20031;-82
2022/05/20 01:55:59;;;;;;;5.22;3.03;;;17.30;99.90;;;;;;4995444;28;20034;-83
2022/05/20 01:58:58;;;;;;;4.18;3.20;;;17.30;99.90;;;;;;4978211;28;20050;-83
2022/05/20 02:01:47;;;;;;;8.23;3.60;;;17.30;99.90;;;;;;4974010;28;20031;-83
2022/05/20 02:04:20;;;;;;;4.72;3.30;;;17.20;99.90;;;;;;4995103;28;20065;-83
2022/05/20 02:06:58;;;;;;;5.75;3.30;;;17.20;99.90;;;;;;4998498;28;20113;-83
2022/05/20 02:09:47;;;;;;;7.90;3.08;;;17.20;99.90;;;;;;4998683;28;20018;-83
2022/05/20 02:12:17;;;;;;;6.00;3.78;;;17.20;99.90;;;;;;4989051;28;20042;-83
2022/05/20 02:15:06;;;;;;;8.15;3.47;;;17.10;99.90;;;;;;4979418;28;20105;-83
2022/05/20 02:17:37;;;;;;;4.55;3.22;;;17.10;99.90;;;;;;4976969;28;20035;-83
2022/05/20 02:20:10;;;;;;;5.38;3.38;;;17.10;99.90;;;;;;4958915;28;20034;-82
2022/05/20 02:22:39;;;;;;;6.63;3.10;;;17.10;99.90;;;;;;4958689;28;20030;-83
2022/05/20 02:25:09;;;;;;;5.45;3.20;;;17.10;99.90;;;;;;4976318;28;20085;-83
2022/05/20 02:27:40;;;;;;;4.15;3.00;;;17.00;99.90;;;;;;4976173;28;20015;-83
2022/05/20 02:30:13;;;;;;;6.60;3.35;;;17.10;99.90;;;;;;4976288;28;20362;-83
2022/05/20 02:32:41;;;;;;;6.15;2.90;;;17.00;99.90;;;;;;4961413;28;20447;-83
2022/05/20 02:35:07;;;;;;;6.35;3.30;;;17.00;99.90;;;;;;4995133;28;20126;-83
2022/05/20 02:37:35;;;;;;;5.25;2.80;;;17.00;99.90;;;;;;4995595;28;20101;-83
2022/05/20 02:40:03;;;;;;;6.40;3.08;;;17.00;99.90;;;;;;4978150;28;20379;-83
2022/05/20 02:42:28;;;;;;;4.95;3.10;;;17.00;99.90;;;;;;4990396;28;20045;-83
2022/05/20 02:44:55;;;;;;;3.67;2.78;;;16.90;99.90;;;;;;4958688;28;20018;-83
2022/05/20 02:47:21;;;;;;;6.30;3.15;;;16.90;99.90;;;;;;4976067;28;20063;-83
2022/05/20 02:49:47;;;;;;;3.78;2.90;;;16.80;99.90;;;;;;4976053;28;20023;-83
2022/05/20 02:52:14;;;;;;;6.95;3.25;;;16.80;99.90;;;;;;4977783;28;20053;-83
2022/05/20 02:54:39;;;;;;;7.05;3.10;;;16.80;99.90;;;;;;4994957;28;20329;-83
2022/05/20 02:57:05;;;;;;;3.67;2.70;;;16.80;99.90;;;;;;4975732;28;20037;-82
2022/05/20 03:04:59;;;;;;;6.55;3.13;;;16.60;99.90;;;;;;4995366;28;20029;-82
2022/05/20 03:07:25;;;;;;;4.63;2.92;;;16.60;99.90;;;;;;4995637;28;20030;-83
2022/05/20 03:09:52;;;;;;;5.22;2.80;;;16.60;99.90;;;;;;4995301;28;20066;-83
2022/05/20 03:12:18;;;;;;;7.70;2.85;;;16.60;99.90;;;;;;4995020;28;20033;-83
2022/05/20 03:14:44;;;;;;;3.10;2.60;;;16.50;99.90;;;;;;4977327;28;20058;-83
2022/05/20 03:17:09;;;;;;;5.07;2.80;;;16.50;99.90;;;;;;4994979;28;20169;-83
2022/05/20 03:19:36;;;;;;;4.20;2.70;;;16.60;99.90;;;;;;4974178;28;20042;-83
2022/05/20 03:22:04;;;;;;;5.70;2.60;;;16.50;99.90;;;;;;4994704;28;20034;-83
2022/05/20 03:24:30;;;;;;;3.95;2.70;;;16.50;99.90;;;;;;4994487;28;20038;-83
2022/05/20 03:26:56;;;;;;;4.07;2.63;;;16.50;99.90;;;;;;4994687;28;20019;-82
2022/05/20 03:29:22;;;;;;;6.90;3.00;;;16.50;99.90;;;;;;4993144;28;20041;-83
2022/05/20 03:31:48;;;;;;;3.40;2.58;;;16.50;99.90;;;;;;4975228;28;20065;-83
2022/05/20 03:34:14;;;;;;;4.22;2.78;;;16.50;99.90;;;;;;4957911;28;20071;-83
2022/05/20 03:36:42;;;;;;;4.07;2.78;;;16.40;99.90;;;;;;4974949;28;20174;-82
2022/05/20 03:39:12;;;;;;;3.95;2.63;;;16.40;99.90;;;;;;4957698;28;20034;-83
2022/05/20 03:41:38;;;;;;;6.28;2.70;;;16.40;99.90;;;;;;4994123;28;20038;-83
2022/05/20 03:44:04;;;;;;;6.50;2.80;;;16.40;99.90;;;;;;4994181;28;20027;-82
2022/05/20 03:46:31;;;;;;;7.55;2.97;;;16.40;99.90;;;;;;4994176;28;20032;-83
2022/05/20 03:49:00;;;;;;;3.95;2.58;;;16.40;99.90;;;;;;4994018;28;20022;-83
2022/05/20 03:51:26;;;;;;;5.18;2.75;;;16.40;99.90;;;;;;4993665;28;20113;-83
2022/05/20 03:53:52;;;;;;;3.63;2.45;;;16.40;99.90;;;;;;4993170;28;20030;-82
2022/05/20 03:56:18;;;;;;;4.28;2.40;;;16.40;99.90;;;;;;4980557;28;20026;-83
2022/05/20 03:58:43;;;;;;;3.25;2.65;;;16.50;99.90;;;;;;4989482;28;20022;-83
2022/05/20 04:03:56;;;;;;;4.38;2.45;;;16.50;99.90;;;;;;4994208;28;20044;-83
2022/05/20 04:06:22;;;;;;;4.38;2.80;;;16.50;99.90;;;;;;4994036;28;20037;-81
2022/05/20 04:08:47;;;;;;;3.30;2.70;;;16.50;99.90;;;;;;4993845;28;20044;-81
2022/05/20 04:11:13;;;;;;;3.70;2.83;;;16.50;99.90;;;;;;4976482;28;20057;-81
2022/05/20 04:13:41;;;;;;;7.40;2.85;;;16.60;99.90;;;;;;4994303;28;20069;-79
2022/05/20 04:16:12;;;;;;;5.22;3.00;;;16.60;99.90;;;;;;4987304;28;20076;-81
2022/05/20 04:18:38;;;;;;;6.43;3.20;;;16.60;99.90;;;;;;4985329;28;20049;-81
2022/05/20 04:21:04;;;;;;;5.13;2.85;;;16.60;99.90;;;;;;4993839;28;20034;-81
2022/05/20 04:23:31;;;;;;;3.67;2.60;;;16.70;99.90;;;;;;4993728;28;20710;-80
2022/05/20 04:25:56;;;;;;;3.65;2.80;;;16.70;99.90;;;;;;4998469;28;20021;-80
2022/05/20 04:28:22;;;;;;;8.40;2.88;;;16.70;99.90;;;;;;4998327;28;20483;-81
2022/05/20 04:30:47;;;;;;;5.90;2.70;;;16.80;99.90;;;;;;4980767;28;20022;-81
2022/05/20 04:33:13;;;;;;;7.18;2.80;;;16.90;99.90;;;;;;4992357;28;20030;-80
2022/05/20 04:35:39;;;;;;;4.55;3.10;;;16.90;99.90;;;;;;4996634;28;20046;-80
2022/05/20 04:38:05;;;;;;;5.63;2.90;;;17.00;99.90;;;;;;4990980;28;20029;-80
2022/05/20 04:40:30;;;;;;;6.38;2.70;;;17.00;99.90;;;;;;5002497;28;20022;-80
2022/05/20 04:48:25;;;;;;;6.28;3.03;;;17.20;99.90;;;;;;5003913;28;20040;-80
2022/05/20 04:50:51;;;;;;;4.53;2.65;;;17.30;99.90;;;;;;5000174;28;20027;-80
2022/05/20 04:56:00;;;;;;;3.65;2.50;;;17.40;99.90;;;;;;4997755;28;20096;-80
2022/05/20 04:58:26;;;;;;;5.30;2.67;;;17.50;99.90;;;;;;4971450;28;20125;-80
2022/05/20 05:00:54;;;;;;;3.80;2.58;;;17.60;99.90;;;;;;4982515;28;20033;-80
2022/05/20 05:03:19;;;;;;;4.05;2.97;;;17.70;99.90;;;;;;4992477;28;20062;-80
2022/05/20 05:05:45;;;;;;;5.10;2.60;;;17.70;99.90;;;;;;4995142;28;20058;-79
2022/05/20 05:08:10;;;;;;;7.57;2.97;;;17.80;99.90;;;;;;4975748;28;20025;-79
2022/05/20 05:10:36;;;;;;;3.60;2.55;;;17.90;99.90;;;;;;4996953;28;20030;-80
2022/05/20 05:13:02;;;;;;;3.58;2.53;;;18.00;99.90;;;;;;4990955;28;20034;-79
2022/05/20 05:15:28;;;;;;;4.13;2.70;;;18.10;99.90;;;;;;4990907;28;20069;-80
2022/05/20 05:18:09;;;;;;;5.07;2.75;;;18.20;99.90;;;;;;4992063;28;20109;-80
2022/05/20 05:20:36;;;;;;;4.35;3.00;;;18.30;99.90;;;;;;4991880;28;20040;-80
2022/05/20 05:23:02;;;;;;;4.25;3.05;;;18.40;99.90;;;;;;5011064;28;20048;-80
2022/05/20 05:25:31;;;;;;;6.85;2.70;;;18.50;99.90;;;;;;5010623;28;20033;-80
2022/05/20 05:28:01;;;;;;;3.08;2.45;;;18.70;99.90;;;;;;4997171;28;20038;-80
2022/05/20 05:30:27;;;;;;;4.03;2.65;;;18.80;99.90;;;;;;4953790;28;20037;-80
2022/05/20 05:32:53;;;;;;;4.75;2.80;;;18.90;99.90;;;;;;4952605;28;20118;-80
2022/05/20 05:35:22;;;;;;;4.28;2.53;;;19.00;99.90;;;;;;4970457;28;20130;-80
2022/05/20 05:37:48;;;;;;;9.15;3.03;;;19.20;99.90;;;;;;4970565;28;20484;-80
2022/05/20 05:40:17;;;;;;;8.23;2.78;;;19.30;99.90;;;;;;4984055;28;20026;-80
2022/05/20 05:42:43;;;;;;;7.55;3.08;;;19.40;99.90;;;;;;5001557;28;20050;-79
2022/05/20 05:45:11;;;;;;;6.47;3.03;;;19.50;99.90;;;;;;4988320;28;20026;-79
2022/05/20 05:47:36;;;;;;;3.90;2.50;;;19.60;99.90;;;;;;4999312;28;20034;-79
2022/05/20 05:50:02;;;;;;;4.05;2.45;;;19.70;99.90;;;;;;4992666;28;20045;-79
2022/05/20 05:52:28;;;;;;;3.53;2.50;;;19.80;99.90;;;;;;4985524;28;20033;-79
2022/05/20 05:54:53;;;;;;;4.57;2.65;;;20.00;99.90;;;;;;4988552;28;20038;-81
2022/05/20 05:57:19;;;;;;;5.22;2.60;;;20.00;99.90;;;;;;4991960;28;20030;-81
2022/05/20 05:59:44;;;;;;;3.95;2.30;;;20.20;99.90;;;;;;4957962;28;20046;-81
2022/05/20 06:02:12;;;;;;;4.43;2.60;;;20.30;99.90;;;;;;4956191;28;20114;-81
2022/05/20 06:04:38;;;;;;;5.03;2.28;;;20.40;99.90;;;;;;4984664;28;20129;-81
2022/05/20 06:07:04;;;;;;;4.18;2.83;;;20.50;99.90;;;;;;4984208;28;20862;-81
2022/05/20 06:09:30;;;;;;;6.88;3.13;;;20.60;99.90;;;;;;4974839;28;20034;-81
2022/05/20 06:11:55;;;;;;;4.93;2.78;;;20.60;99.90;;;;;;4990037;28;20491;-81
2022/05/20 06:14:21;;;;;;;4.07;2.40;;;20.70;99.90;;;;;;4967451;28;20030;-81
2022/05/20 06:16:46;;;;;;;6.28;2.55;;;20.80;99.90;;;;;;4982836;28;20042;-80
2022/05/20 06:19:13;;;;;;;4.35;2.80;;;20.90;99.90;;;;;;4988454;28;20049;-79
2022/05/20 06:21:40;;;;;;;4.72;2.80;;;21.00;99.90;;;;;;4971320;28;20483;-79
2022/05/20 06:24:14;;;;;;;3.97;2.70;;;21.10;99.90;;;;;;4984066;28;20440;-79
2022/05/20 06:26:41;;;;;;;10.17;3.13;;;21.20;99.90;;;;;;4991136;28;20117;-79
2022/05/20 06:29:07;;;;;;;5.45;2.50;;;21.30;99.90;;;;;;4992355;28;20041;-79
2022/05/20 06:31:33;;;;;;;5.70;2.83;;;21.40;99.90;;;;;;4992110;28;20703;-79
2022/05/20 06:33:59;;;;;;;6.40;3.28;;;21.50;99.90;;;;;;4991618;28;20078;-79
2022/05/20 06:41:54;;;;;;;7.23;2.60;;;21.80;99.90;;;;;;4998598;28;20124;-79
2022/05/20 06:44:21;;;;;;;3.65;2.65;;;21.90;99.90;;;;;;4992080;28;20102;-80
2022/05/20 06:46:46;;;;;;;4.78;2.80;;;22.00;99.90;;;;;;4993373;28;20080;-79
2022/05/20 06:49:13;;;;;;;3.67;2.58;;;22.00;99.90;;;;;;4974787;28;20038;-79
2022/05/20 06:51:39;;;;;;;4.80;2.67;;;22.00;99.90;;;;;;4967102;28;20549;-79
2022/05/20 06:54:07;;;;;;;6.25;2.40;;;22.10;99.90;;;;;;4968510;28;20031;-79
2022/05/20 06:56:36;;;;;;;3.42;2.40;;;22.20;99.90;;;;;;4986429;28;20074;-79
2022/05/20 06:59:03;;;;;;;4.53;2.25;;;22.30;99.90;;;;;;4983436;28;20142;-79
2022/05/20 07:01:32;;;;;;;4.70;2.90;;;22.40;99.90;;;;;;4993847;28;20030;-79
2022/05/20 07:03:58;;;;;;;5.30;2.90;;;22.40;99.90;;;;;;4986322;28;20086;-79
2022/05/20 07:06:25;;;;;;;6.25;2.45;;;22.50;99.90;;;;;;4969087;28;20158;-79
2022/05/20 07:08:51;;;;;;;6.32;2.58;;;22.60;99.90;;;;;;4994685;28;20038;-79
2022/05/20 07:11:19;;;;;;;6.00;2.40;;;22.60;99.90;;;;;;4994107;28;20032;-79
2022/05/20 07:13:45;;;;;;;3.53;2.40;;;22.70;99.90;;;;;;4992497;28;20061;-79
2022/05/20 07:16:12;;;;;;;4.82;2.50;;;22.70;99.90;;;;;;4991384;28;20018;-80
2022/05/20 07:18:37;;;;;;;4.00;2.45;;;22.80;99.90;;;;;;4985545;28;20030;-81
2022/05/20 07:21:04;;;;;;;3.33;2.30;;;22.80;99.90;;;;;;4991188;28;20542;-81
2022/05/20 07:23:31;;;;;;;4.78;2.25;;;22.90;99.90;;;;;;4991901;28;20065;-81
2022/05/20 07:25:56;;;;;;;5.40;2.60;;;22.90;99.90;;;;;;4987696;28;20018;-81
2022/05/20 07:28:23;;;;;;;7.28;2.40;;;23.00;99.90;;;;;;4973864;28;20031;-81
2022/05/20 07:30:48;;;;;;;6.05;2.53;;;23.10;99.90;;;;;;4973602;28;20080;-81
2022/05/20 07:33:14;;;;;;;4.90;2.60;;;23.20;99.90;;;;;;4972531;28;20050;-81
2022/05/20 07:35:39;;;;;;;3.65;2.50;;;23.30;99.90;;;;;;4972630;28;20105;-81
2022/05/20 07:38:06;;;;;;;4.55;2.60;;;23.40;99.90;;;;;;4986352;28;20104;-81
2022/05/20 07:40:32;;;;;;;4.47;2.65;;;23.50;99.90;;;;;;4972106;28;20061;-81
2022/05/20 07:42:59;;;;;;;4.53;2.40;;;23.60;99.90;;;;;;4971632;28;20059;-79
2022/05/20 07:45:24;;;;;;;6.38;2.47;;;23.70;99.90;;;;;;4954433;28;20065;-79
2022/05/20 07:47:50;;;;;;;8.00;2.88;;;23.80;99.90;;;;;;4987747;28;20053;-79
2022/05/20 07:50:23;;;;;;;3.28;2.20;;;24.00;99.90;;;;;;4991246;28;20352;-79
2022/05/20 07:55:40;;;;;;;5.68;2.42;;;24.30;99.90;;;;;;4986718;28;20053;-79
2022/05/20 07:58:10;;;;;;;4.18;2.50;;;24.40;99.90;;;;;;4990755;28;20053;-77
2022/05/20 08:00:37;;;;;;;4.95;2.42;;;24.40;99.90;;;;;;4973195;28;20558;-77
2022/05/20 08:03:03;;;;;;;4.00;2.25;;;24.50;99.90;;;;;;4972706;28;20039;-77
2022/05/20 08:05:30;;;;;;;5.32;2.55;;;24.60;99.90;;;;;;4971053;28;20022;-77
2022/05/20 08:08:05;;;;;;;6.25;2.85;;;24.70;99.90;;;;;;4974945;28;20081;-77
2022/05/20 08:10:38;;;;;;;;;;;24.90;99.90;;;;;;4974195;28;20045;-78
2022/05/20 08:13:05;;;;;;;8.02;2.47;;;25.00;99.90;;;;;;4969295;28;20362;-78
2022/05/20 08:15:31;;;;;;;3.65;2.38;;;25.00;99.90;;;;;;4971398;28;20037;-77
2022/05/20 08:17:57;;;;;;;5.15;2.60;;;25.10;99.90;;;;;;4970890;28;20022;-77
2022/05/20 08:20:30;;;;;;;5.20;2.35;;;25.20;99.90;;;;;;4970758;28;20094;-77
2022/05/20 08:22:56;;;;;;;6.47;2.65;;;25.40;99.90;;;;;;4970803;28;20471;-77
2022/05/20 08:25:24;;;;;;;4.40;2.40;;;25.50;99.90;;;;;;4980985;28;20076;-77
2022/05/20 08:27:51;;;;;;;6.35;2.30;;;25.60;99.90;;;;;;4984532;28;20026;-77
2022/05/20 08:30:21;;;;;;;6.05;2.50;;;25.60;99.90;;;;;;4974542;28;20060;-77
2022/05/20 08:32:47;;;;;;;6.45;2.40;;;25.70;99.90;;;;;;4985352;28;20041;-77
2022/05/20 08:35:13;;;;;;;4.45;2.63;;;25.70;99.90;;;;;;4982598;28;20054;-80
2022/05/20 08:37:45;;;;;;;6.30;2.58;;;25.70;99.90;;;;;;4963267;28;20035;-80
2022/05/20 08:40:36;;;;;;;4.65;2.53;;;25.80;99.90;;;;;;4982979;28;20040;-80
2022/05/20 08:43:02;;;;;;;6.35;2.55;;;26.10;99.90;;;;;;4962565;28;20031;-80
2022/05/20 08:45:29;;;;;;;3.67;2.40;;;26.10;99.90;;;;;;5005088;28;20521;-81
2022/05/20 08:47:56;;;;;;;6.07;2.40;;;26.10;99.90;;;;;;4963780;28;20049;-81
2022/05/20 08:50:26;;;;;;;6.22;2.65;;;26.10;99.90;;;;;;4961536;28;20140;-81
2022/05/20 08:52:55;;;;;;;4.63;2.55;;;26.10;99.90;;;;;;4983590;28;20062;-81
2022/05/20 08:55:21;;;;;;;7.22;2.58;;;26.20;99.90;;;;;;4984197;28;20029;-82
2022/05/20 08:58:01;;;;;;;4.65;2.30;;;26.30;99.90;;;;;;4989781;28;20038;-82
2022/05/20 09:00:28;;;;;;;6.47;2.72;;;26.30;99.90;;;;;;4966590;28;20030;-81
2022/05/20 09:03:12;;;;;;;3.85;2.25;;;26.40;99.90;;;;;;4988294;28;20037;-81
2022/05/20 09:05:42;;;;;;;4.47;2.28;;;26.50;99.90;;;;;;4965824;28;20041;-80
2022/05/20 09:08:16;;;;;;;7.50;2.80;;;26.50;99.90;;;;;;4967268;28;21500;-80
2022/05/20 09:10:46;;;;;;;;;;;26.70;99.90;;;;;;4991098;28;20493;-79
2022/05/20 09:16:31;;;;;;;6.03;3.05;;;27.00;99.90;;;;;;4987568;28;20446;-79
2022/05/20 09:19:07;;;;;;;6.13;2.47;;;27.10;99.90;;;;;;4988117;28;20042;-80
2022/05/20 09:21:43;;;;;;;3.95;2.35;;;27.30;99.90;;;;;;4982195;28;20594;-81
2022/05/20 09:24:22;;;;;;;4.20;2.13;;;27.50;99.90;;;;;;4986221;28;20390;-79
2022/05/20 09:27:03;;;;;;;4.10;2.55;;;27.70;99.90;;;;;;4988141;28;20096;-79
2022/05/20 09:29:46;;;;;;;6.60;2.65;;;28.00;99.90;;;;;;4994002;28;20462;-79
2022/05/20 09:32:25;;;;;;;8.18;2.60;;;28.30;99.90;;;;;;4991007;28;20044;-79
2022/05/20 09:35:23;;;;;;;4.50;2.50;;;28.60;99.90;;;;;;4975335;28;20113;-79
2022/05/20 09:37:51;;;;;;;4.18;2.30;;;28.70;99.90;;;;;;4971419;28;20111;-82
2022/05/20 09:40:22;;;;;;;6.03;2.40;;;29.00;99.30;;;;;;4993070;28;20043;-80
2022/05/20 09:42:59;;;;;;;6.60;2.53;;;29.00;99.10;;;;;;4991786;28;20375;-81
2022/05/20 09:45:26;;;;;;;6.32;2.67;;;29.20;99.00;;;;;;4993256;28;20084;-81
2022/05/20 09:47:57;;;;;;;5.43;2.40;;;29.40;99.90;;;;;;4980199;28;20027;-78
2022/05/20 09:50:28;;;;;;;10.40;2.45;;;29.70;97.90;;;;;;4976509;28;20025;-79
2022/05/20 09:53:17;;;;;;;5.70;2.35;;;30.00;98.20;;;;;;4969114;28;20089;-70
2022/05/20 09:55:45;;;;;;;4.65;2.60;;;30.30;96.70;;;;;;4970335;28;20495;-70
2022/05/20 09:58:21;;;;;;;5.43;2.20;;;30.60;95.40;;;;;;4990967;28;20034;-70
2022/05/20 10:01:02;;;;;;;5.85;2.70;;;30.70;93.70;;;;;;4995092;28;20200;-70
2022/05/20 10:03:32;;;;;;;4.88;2.50;;;30.60;94.60;;;;;;4994982;28;20049;-70
2022/05/20 10:06:23;;;;;;;4.38;2.47;;;30.80;92.30;;;;;;4995440;28;20072;-70
2022/05/20 10:09:16;;;;;;;5.72;2.60;;;31.00;91.00;;;;;;4994774;28;20487;-70
2022/05/20 10:11:48;;;;;;;4.60;2.28;;;31.00;92.50;;;;;;4994557;28;20095;-69
2022/05/20 10:14:16;;;;;;;5.38;2.03;;;31.10;91.50;;;;;;4994793;28;20037;-70
2022/05/20 10:17:00;;;;;;;4.70;2.22;;;31.40;90.00;;;;;;4994478;28;20026;-70
2022/05/20 10:19:40;;;;;;;7.10;2.47;;;31.50;91.10;;;;;;4994537;28;20030;-71
2022/05/20 10:22:19;;;;;;;5.25;2.25;;;31.60;90.40;;;;;;4993613;28;20034;-70
2022/05/20 10:25:17;;;;;;;5.65;2.40;;;31.80;89.60;;;;;;4983145;28;20479;-78
2022/05/20 10:28:02;;;;;;;5.72;2.40;;;32.10;90.30;;;;;;4974993;28;20023;-70
2022/05/20 10:33:30;;;;;;;7.17;2.33;;;32.30;85.60;;;;;;4992999;28;20041;-70
2022/05/20 10:36:19;;;;;;;9.63;2.58;;;32.20;84.30;;;;;;4972366;28;20446;-70
2022/05/20 10:38:48;;;;;;;5.60;2.63;;;32.10;84.60;;;;;;4971706;28;20034;-70
2022/05/20 10:41:30;;;;;;;7.72;2.30;;;32.00;80.10;;;;;;4964454;28;20448;-70
2022/05/20 10:50:12;;;;;;;4.90;2.28;;;32.00;81.90;;;;;;4984111;28;20037;-71
2022/05/20 10:53:08;;;;;;;7.18;2.70;;;32.20;81.20;;;;;;4985026;28;20033;-71
2022/05/20 10:56:14;;;;;;;4.15;2.38;;;32.30;76.10;;;;;;4984670;28;20065;-71
2022/05/20 10:59:09;;;;;;;4.63;2.25;;;32.50;78.60;;;;;;4987375;28;20039;-71
2022/05/20 11:01:59;;;;;;;4.82;2.50;;;32.50;75.60;;;;;;4978886;28;20034;-72
2022/05/20 11:04:28;;;;;;;6.45;2.63;;;32.60;77.50;;;;;;4985368;28;20022;-70
2022/05/20 11:07:16;;;;;;;6.20;2.42;;;32.50;80.60;;;;;;4981800;28;20026;-71
2022/05/20 11:09:54;;;;;;;6.53;2.58;;;32.60;76.00;;;;;;4933830;28;20046;-72
2022/05/20 11:12:39;;;;;;;6.20;2.33;;;33.00;76.70;;;;;;4983571;28;20034;-71
2022/05/20 11:15:32;;;;;;;4.32;2.55;;;33.30;77.80;;;;;;4985408;28;20041;-71
2022/05/20 11:18:39;;;;;;;5.28;2.40;;;33.40;72.60;;;;;;4986005;28;20044;-71
2022/05/20 11:21:36;;;;;;;9.00;2.60;;;33.40;72.60;;;;;;4971915;28;20137;-71
2022/05/20 11:24:13;;;;;;;6.55;2.55;;;33.70;75.50;;;;;;4986780;28;20030;-71
2022/05/20 11:27:05;;;;;;;6.40;2.55;;;33.70;74.10;;;;;;4983377;28;20037;-70
2022/05/20 11:30:00;;;;;;;4.55;2.15;;;34.00;69.20;;;;;;4993737;28;20518;-71
2022/05/20 11:32:38;;;;;;;7.30;2.72;;;33.70;70.90;;;;;;4986016;28;20072;-71
2022/05/20 11:35:21;;;;;;;3.75;2.00;;;33.80;71.60;;;;;;4987821;28;20491;-71
2022/05/20 11:38:12;;;;;;;7.28;2.60;;;33.80;72.50;;;;;;4992860;28;20716;-70
2022/05/20 11:41:08;;;;;;;4.47;2.25;;;33.80;70.10;;;;;;4988296;28;20110;-70
2022/05/20 11:43:50;;;;;;;7.57;2.42;;;34.10;72.70;;;;;;4988013;28;20030;-71
2022/05/20 11:46:47;;;;;;;7.00;2.90;;;34.10;71.50;;;;;;4996632;28;20037;-70
2022/05/20 11:49:39;;;;;;;4.45;2.42;;;34.40;67.70;;;;;;4991352;28;20032;-71
2022/05/20 11:52:39;;;;;;;7.05;2.63;;;34.30;67.80;;;;;;4968243;28;20072;-71
2022/05/20 11:55:24;;;;;;;4.60;2.05;;;34.40;68.80;;;;;;4980570;28;20037;-70
2022/05/20 11:58:15;;;;;;;4.97;2.28;;;34.50;69.70;;;;;;4985740;28;20049;-71
2022/05/20 12:00:42;;;;;;;4.40;2.35;;;34.90;66.50;;;;;;4986268;28;20759;-70
2022/05/20 12:03:14;;;;;;;5.72;2.30;;;34.80;67.20;;;;;;4994809;28;21639;-70
2022/05/20 12:05:44;;;;;;;3.03;2.10;;;34.80;67.40;;;;;;4984498;28;20113;-70
2022/05/20 12:08:39;;;;;;;6.82;2.78;;;35.00;65.10;;;;;;4988216;28;20046;-71
2022/05/20 12:11:29;;;;;;;6.70;2.60;;;35.00;66.00;;;;;;4981051;28;20453;-70
2022/05/20 12:14:25;;;;;;;4.93;2.17;;;35.30;64.20;;;;;;4980929;28;20050;-71
2022/05/20 12:17:02;;;;;;;3.92;2.22;;;35.20;63.60;;;;;;4983122;28;20046;-71
2022/05/20 12:25:30;;;;;;;4.50;2.35;;;36.10;60.20;;;;;;4988200;28;20036;-71
2022/05/20 12:28:10;;;;;;;5.40;2.47;;;35.90;60.90;;;;;;4970895;28;20671;-71
2022/05/20 12:30:38;;;;;;;5.68;2.50;;;36.00;61.80;;;;;;4979610;28;20030;-72
2022/05/20 12:33:21;;;;;;;6.65;2.22;;;36.40;58.90;;;;;;4978403;28;20034;-71
2022/05/20 12:36:17;;;;;;;7.10;2.55;;;36.70;58.70;;;;;;4984161;28;20057;-71
2022/05/20 12:38:43;;;;;;;5.35;2.47;;;36.80;59.40;;;;;;4990706;28;20076;-71
2022/05/20 12:41:34;;;;;;;9.95;2.58;;;36.60;59.10;;;;;;4980556;28;20144;-71
2022/05/20 12:44:20;;;;;;;5.30;2.20;;;36.40;57.30;;;;;;4987508;28;20026;-71
2022/05/20 12:46:45;;;;;;;9.32;2.40;;;36.10;58.40;;;;;;4987944;28;20098;-80
2022/05/20 12:49:12;;;;;;;6.50;2.60;;;36.10;59.10;;;;;;4970363;28;20042;-78
2022/05/20 12:51:47;;;;;;;7.43;2.40;;;36.00;58.60;;;;;;4978658;28;20033;-81
2022/05/20 12:54:18;;;;;;;8.07;2.42;;;35.90;58.60;;;;;;4963036;28;20485;-81
2022/05/20 12:56:44;;;;;;;9.48;2.50;;;35.80;59.50;;;;;;4983188;28;20062;-80
2022/05/20 12:59:15;;;;;;;7.70;2.75;;;35.90;59.00;;;;;;4981358;28;20925;-80
2022/05/20 13:01:59;;;;;;;5.65;2.58;;;36.10;56.70;;;;;;4987011;28;20022;-80
2022/05/20 13:04:33;;;;;;;4.43;2.22;;;35.90;58.50;;;;;;4966992;28;20049;-80
2022/05/20 13:07:01;;;;;;;6.60;2.30;;;35.70;58.60;;;;;;4987448;28;20038;-80
2022/05/20 13:09:38;;;;;;;5.32;2.35;;;35.70;59.20;;;;;;4989643;28;20670;-78
2022/05/20 13:12:08;;;;;;;4.57;2.50;;;35.80;59.00;;;;;;4984827;28;20031;-78
2022/05/20 13:14:35;;;;;;;4.80;2.63;;;35.80;58.80;;;;;;4977757;28;20035;-79
2022/05/20 13:17:04;;;;;;;5.22;2.50;;;35.90;59.20;;;;;;4977947;28;20126;-79
2022/05/20 13:19:47;;;;;;;4.88;2.50;;;35.90;59.30;;;;;;4962384;28;20559;-79
2022/05/20 13:22:15;;;;;;;4.90;2.60;;;36.30;59.00;;;;;;4961502;28;20188;-77
2022/05/20 13:24:44;;;;;;;15.40;2.95;;;36.20;59.20;;;;;;4980166;28;20030;-78
2022/05/20 13:27:11;;;;;;;5.03;2.55;;;35.90;58.70;;;;;;4985288;28;20521;-78
2022/05/20 13:29:37;;;;;;;5.60;2.17;;;35.90;59.00;;;;;;4977226;28;20027;-78
2022/05/20 13:32:41;;;;;;;6.32;2.55;;;35.50;59.90;;;;;;4981331;28;20068;-79
2022/05/20 13:35:10;;;;;;;10.07;2.47;;;35.00;59.50;;;;;;4883917;29;20075;-78
2022/05/20 13:37:40;;;;;;;8.18;2.65;;;34.90;59.70;;;;;;4889916;29;21856;-77
2022/05/20 13:40:19;;;;;;;7.00;2.40;;;34.60;61.40;;;;;;4925587;28;20564;-81
2022/05/20 13:42:53;;;;;;;7.57;2.70;;;34.50;57.10;;;;;;4984924;28;20042;-79
2022/05/20 13:51:08;;;;;;;;;;;34.00;56.40;;;;;;4977922;28;20797;-77
2022/05/20 13:53:36;;;;;;;6.68;2.42;;;33.50;56.30;;;;;;4963167;28;19914;-76
2022/05/20 13:56:06;;;;;;;7.78;3.20;;;33.00;57.30;;;;;;4980124;28;20085;-77
2022/05/20 13:58:33;;;;;;;8.15;2.47;;;32.70;61.20;;;;;;4982584;28;20030;-77
2022/05/20 14:01:04;;;;;;;8.10;2.30;;;32.50;59.20;;;;;;4981470;28;20037;-78